Monday, August 3, 2015, 7:18 PM EDT
Back to Local

KCXY, Harrisburg Capital City

Location: New Cumberland, PA, United States Lat: 40.217
Local Time: 7:18 PM EDT (23:18 GMT) Lon: -76.85
Time Zone: US/Eastern Elev: 347 ft

Show me the last for .
Show Decoded

2015-08-03 18:56 METAR KCXY 032256Z 20005KT 10SM SCT100 29/17 A2978 RMK AO2 SLP083 T02940167 =
2015-08-03 17:56 METAR KCXY 032156Z 20007KT 10SM FEW120 31/17 A2978 RMK AO2 SLP083 T03110167 =
2015-08-03 16:56 METAR KCXY 032056Z 20007KT 10SM FEW120 30/16 A2979 RMK AO2 SLP085 T03000161
                 58005 =
2015-08-03 15:56 METAR KCXY 031956Z 20008KT 10SM SCT060 SCT080 BKN095 30/16 A2979 RMK AO2 SLP087
                 T03000161 =
2015-08-03 14:56 METAR KCXY 031856Z 22006KT 10SM SCT060 32/16 A2980 RMK AO2 SLP089 T03170161 =
2015-08-03 13:56 METAR KCXY 031756Z 21012G15KT 10SM FEW060 31/17 A2980 RMK AO2 SLP090 T03060172
                 10317 20217 56011 =
2015-08-03 12:56 METAR KCXY 031656Z 21010KT 10SM CLR 31/17 A2981 RMK AO2 SLP093 T03060167 =
2015-08-03 11:56 METAR KCXY 031556Z 19010G18KT 10SM CLR 29/17 A2982 RMK AO2 SLP096 T02940167 =
2015-08-03 10:56 METAR KCXY 031456Z 21007KT 10SM CLR 28/16 A2984 RMK AO2 SLP101 T02830161 58009 =
2015-08-03 09:56 METAR KCXY 031356Z 22006KT 10SM CLR 27/16 A2985 RMK AO2 SLP107 T02670161 =
2015-08-03 07:56 METAR KCXY 031156Z 23005KT 10SM CLR 22/16 A2986 RMK AO2 SLP111 T02170161 10217
                 20178 50007 =
2015-08-03 06:56 METAR KCXY 031056Z 28005KT 10SM CLR 19/16 A2986 RMK AO2 SLP111 T01890161 =
2015-08-03 05:56 METAR KCXY 030956Z AUTO 23003KT 10SM CLR 19/16 A2984 RMK AO2 SLP104 T01890156 =
2015-08-03 04:56 METAR KCXY 030856Z AUTO 26004KT 10SM CLR 20/16 A2984 RMK AO2 SLP103 T02000156
                 58003 =
2015-08-03 03:56 METAR KCXY 030756Z AUTO 27006KT 10SM CLR 20/16 A2985 RMK AO2 SLP107 T02000156 =
2015-08-03 02:56 METAR KCXY 030656Z AUTO 26005KT 10SM CLR 21/16 A2985 RMK AO2 SLP105 T02110156 =
2015-08-03 01:56 METAR KCXY 030556Z AUTO 22005KT 10SM CLR 21/16 A2985 RMK AO2 SLP106 T02060156
                 10272 20206 58006 =
2015-08-03 00:56 METAR KCXY 030456Z AUTO 27003KT 10SM CLR 23/15 A2986 RMK AO2 SLP109 T02280150
                 403110161 =
2015-08-02 23:56 METAR KCXY 030356Z AUTO 27005KT 10SM CLR 23/16 A2988 RMK AO2 SLP115 T02330156 =
2015-08-02 22:56 METAR KCXY 030256Z AUTO 22011KT 10SM CLR 26/14 A2987 RMK AO2 SLP112 T02610144
                 58007 =
2015-08-02 21:56 METAR KCXY 030156Z AUTO 21007KT 10SM CLR 26/15 A2988 RMK AO2 SLP116 T02610150 =
2015-08-02 20:56 METAR KCXY 030056Z AUTO 19007KT 10SM CLR 27/14 A2988 RMK AO2 SLP116 T02670144 =
2015-08-02 19:56 METAR KCXY 022356Z AUTO 19008KT 10SM CLR 27/15 A2989 RMK AO2 SLP119 T02720150
                 10311 20272 55002 =

Support USWX by starting your Amazon purchase here.